createdAt,value
2023-12-22T00:01:26.532Z,0.40
2023-12-22T00:03:53.286Z,0.50
2023-12-22T00:06:20.010Z,0.50
2023-12-22T00:08:46.774Z,0.40
2023-12-22T00:11:13.416Z,0.40
2023-12-22T00:13:40.065Z,0.40
2023-12-22T00:16:06.916Z,0.30
2023-12-22T00:18:33.619Z,0.40
2023-12-22T00:21:00.737Z,0.80
2023-12-22T00:23:27.335Z,0.50
2023-12-22T00:25:54.013Z,0.50
2023-12-22T00:28:20.714Z,0.50
2023-12-22T00:30:47.706Z,0.60
2023-12-22T00:33:14.470Z,0.50
2023-12-22T00:35:41.195Z,0.50
2023-12-22T00:38:07.943Z,0.60
2023-12-22T00:40:34.710Z,0.65
2023-12-22T00:43:01.416Z,1.00
2023-12-22T00:45:28.041Z,1.10
2023-12-22T00:47:54.919Z,1.15
2023-12-22T00:50:21.575Z,1.50
2023-12-22T00:52:48.277Z,1.98
2023-12-22T00:55:15.057Z,2.08
2023-12-22T00:57:41.655Z,2.38
2023-12-22T01:00:11.957Z,4.45
2023-12-22T01:02:39.457Z,3.28
2023-12-22T01:05:06.530Z,2.00
2023-12-22T01:07:33.232Z,1.20
2023-12-22T01:10:04.681Z,1.65
2023-12-22T01:12:31.788Z,1.50
2023-12-22T01:14:58.473Z,1.55
2023-12-22T01:17:25.133Z,1.30
2023-12-22T01:19:52.427Z,1.58
2023-12-22T01:22:19.222Z,0.77
2023-12-22T01:24:46.713Z,0.70
2023-12-22T01:27:13.994Z,0.95
2023-12-22T01:29:40.824Z,0.60
2023-12-22T01:32:07.775Z,0.40
2023-12-22T01:34:34.537Z,0.70
2023-12-22T01:37:01.287Z,0.40
2023-12-22T01:39:27.962Z,0.40
2023-12-22T01:41:54.616Z,0.40
2023-12-22T01:44:21.208Z,0.70
2023-12-22T01:46:48.075Z,0.40
2023-12-22T01:49:16.015Z,0.40
2023-12-22T01:51:44.127Z,0.38
2023-12-22T01:54:11.824Z,0.22
2023-12-22T01:56:38.682Z,0.30
2023-12-22T01:59:05.749Z,0.28
2023-12-22T02:01:33.085Z,0.30
2023-12-22T02:04:00.998Z,0.30
2023-12-22T02:06:27.996Z,0.22
2023-12-22T02:08:55.190Z,0.22
2023-12-22T02:11:21.995Z,0.20
2023-12-22T02:13:48.736Z,0.20
2023-12-22T02:16:34.266Z,0.28
2023-12-22T02:19:09.068Z,0.30
2023-12-22T02:21:35.673Z,0.20
2023-12-22T02:24:02.395Z,0.20
2023-12-22T02:26:38.836Z,0.30
2023-12-22T02:29:06.928Z,0.30
2023-12-22T02:31:38.735Z,0.20
2023-12-22T02:34:14.509Z,0.30
2023-12-22T02:36:42.705Z,0.25
2023-12-22T02:39:11.072Z,0.22
2023-12-22T02:41:37.865Z,0.25
2023-12-22T02:44:04.735Z,0.50
2023-12-22T02:46:31.476Z,0.40
2023-12-22T02:48:58.138Z,0.30
2023-12-22T02:51:24.824Z,0.40
2023-12-22T02:53:51.420Z,0.30
2023-12-22T02:56:18.056Z,0.40
2023-12-22T02:58:44.755Z,0.40
2023-12-22T03:01:11.517Z,0.22
2023-12-22T03:03:38.165Z,0.30
2023-12-22T03:06:05.307Z,0.30
2023-12-22T03:08:32.023Z,0.43
2023-12-22T03:10:58.856Z,0.40
2023-12-22T03:13:25.535Z,0.30
2023-12-22T03:15:52.252Z,0.35
2023-12-22T03:18:19.013Z,0.47
2023-12-22T03:20:45.776Z,0.20
2023-12-22T03:23:12.514Z,0.50
2023-12-22T03:25:39.124Z,0.40
2023-12-22T03:28:05.921Z,0.20
2023-12-22T03:30:32.595Z,0.20
2023-12-22T03:32:59.576Z,0.30
2023-12-22T03:35:26.594Z,0.20
2023-12-22T03:37:53.615Z,0.30
2023-12-22T03:40:20.512Z,0.30
2023-12-22T03:42:47.114Z,0.20
2023-12-22T03:45:13.800Z,0.30
2023-12-22T03:47:40.408Z,0.43
2023-12-22T03:50:08.235Z,0.30
2023-12-22T03:52:34.918Z,0.45
2023-12-22T03:55:01.622Z,0.50
2023-12-22T03:57:28.371Z,0.40
2023-12-22T03:59:54.998Z,0.32
2023-12-22T04:02:21.620Z,0.50
2023-12-22T04:04:48.313Z,0.75
2023-12-22T04:07:14.948Z,0.98
2023-12-22T04:09:41.543Z,0.70
2023-12-22T04:12:08.319Z,0.40
2023-12-22T04:14:35.252Z,0.60
2023-12-22T04:17:01.933Z,0.43
2023-12-22T04:19:28.741Z,0.50
2023-12-22T04:21:55.476Z,0.60
2023-12-22T04:24:22.120Z,0.40
2023-12-22T04:26:48.702Z,0.50
2023-12-22T04:29:15.459Z,0.40
2023-12-22T04:31:42.162Z,0.50
2023-12-22T04:34:08.818Z,0.40
2023-12-22T04:36:36.814Z,0.50
2023-12-22T04:39:03.688Z,0.30
2023-12-22T04:41:30.271Z,0.30
2023-12-22T04:43:56.955Z,0.30
2023-12-22T04:46:23.633Z,0.88
2023-12-22T04:48:50.350Z,0.47
2023-12-22T04:51:16.958Z,0.63
2023-12-22T04:53:43.705Z,6.50
2023-12-22T04:56:10.334Z,2.42
2023-12-22T04:58:37.023Z,0.70
2023-12-22T05:01:03.768Z,1.00
2023-12-22T05:03:30.442Z,0.80
2023-12-22T05:05:57.139Z,1.80
2023-12-22T05:08:23.824Z,2.60
2023-12-22T05:10:50.484Z,3.85
2023-12-22T05:13:17.167Z,3.47
2023-12-22T05:15:43.779Z,3.60
2023-12-22T05:18:10.588Z,2.90
2023-12-22T05:20:37.256Z,3.25
2023-12-22T05:23:04.170Z,2.20
2023-12-22T05:25:30.892Z,2.00
2023-12-22T05:27:58.391Z,2.10
2023-12-22T05:30:24.991Z,1.20
2023-12-22T05:32:51.812Z,1.60
2023-12-22T05:35:18.580Z,1.73
2023-12-22T05:37:45.297Z,2.15
2023-12-22T05:40:13.054Z,2.90
2023-12-22T05:42:39.868Z,1.60
2023-12-22T05:45:07.816Z,0.75
2023-12-22T05:47:34.561Z,0.50
2023-12-22T05:50:01.451Z,0.57
2023-12-22T05:52:28.200Z,0.50
2023-12-22T05:54:55.476Z,0.30
2023-12-22T05:57:22.125Z,0.80
2023-12-22T05:59:48.717Z,2.47
2023-12-22T06:02:15.393Z,2.40
2023-12-22T06:04:42.154Z,0.90
2023-12-22T06:07:08.843Z,0.60
2023-12-22T06:09:35.427Z,1.20
2023-12-22T06:12:02.144Z,0.70
2023-12-22T06:14:28.815Z,0.93
2023-12-22T06:16:57.815Z,0.45
2023-12-22T06:19:26.175Z,0.30
2023-12-22T06:21:52.958Z,0.38
2023-12-22T06:24:19.698Z,0.30
2023-12-22T06:26:46.559Z,0.45
2023-12-22T06:29:13.274Z,0.47
2023-12-22T06:31:40.233Z,0.50
2023-12-22T06:34:06.984Z,0.40
2023-12-22T06:36:33.594Z,0.52
2023-12-22T06:39:00.329Z,0.55
2023-12-22T06:41:31.626Z,0.40
2023-12-22T06:44:02.092Z,0.50
2023-12-22T06:46:30.154Z,0.60
2023-12-22T06:48:57.754Z,0.50
2023-12-22T06:51:27.297Z,0.80
2023-12-22T06:53:55.826Z,1.33
2023-12-22T06:56:26.589Z,1.50
2023-12-22T06:58:55.285Z,0.95
2023-12-22T07:01:27.255Z,1.13
2023-12-22T07:03:54.125Z,0.90
2023-12-22T07:06:22.501Z,1.00
2023-12-22T07:09:17.354Z,0.80
2023-12-22T07:11:51.488Z,0.80
2023-12-22T07:14:18.590Z,0.57
2023-12-22T07:16:45.640Z,1.65
2023-12-22T07:19:14.325Z,1.13
2023-12-22T07:21:43.205Z,0.38
2023-12-22T07:24:10.743Z,0.60
2023-12-22T07:26:37.986Z,0.90
2023-12-22T07:29:04.794Z,0.70
2023-12-22T07:31:31.426Z,0.32
2023-12-22T07:33:58.078Z,1.13
2023-12-22T07:36:24.697Z,1.40
2023-12-22T07:38:51.281Z,1.25
2023-12-22T07:41:19.166Z,1.70
2023-12-22T07:43:46.581Z,1.80
2023-12-22T07:46:21.399Z,1.10
2023-12-22T07:48:48.815Z,1.10
2023-12-22T07:51:16.199Z,1.10
2023-12-22T07:53:43.187Z,1.30
2023-12-22T07:56:12.565Z,1.20
2023-12-22T07:58:39.689Z,1.42
2023-12-22T08:01:09.534Z,0.55
2023-12-22T08:03:36.318Z,0.80
2023-12-22T08:06:03.324Z,0.70
2023-12-22T08:08:30.277Z,0.63
2023-12-22T08:10:56.995Z,1.40
2023-12-22T08:13:23.735Z,1.60
2023-12-22T08:15:50.417Z,1.15
2023-12-22T08:18:17.471Z,0.77
2023-12-22T08:20:45.812Z,0.60
2023-12-22T08:23:14.888Z,0.70
2023-12-22T08:25:45.384Z,0.80
2023-12-22T08:28:13.821Z,1.67
2023-12-22T08:30:40.741Z,1.30
2023-12-22T08:33:07.636Z,1.00
2023-12-22T08:35:34.430Z,0.30
2023-12-22T08:38:01.231Z,0.40
2023-12-22T08:40:28.866Z,0.90
2023-12-22T08:42:56.029Z,0.82
2023-12-22T08:45:22.766Z,1.83
2023-12-22T08:47:49.952Z,1.92
2023-12-22T08:50:16.791Z,0.80
2023-12-22T08:52:43.516Z,0.80
2023-12-22T08:55:10.155Z,1.00
2023-12-22T08:57:36.759Z,0.60
2023-12-22T09:00:04.746Z,1.98
2023-12-22T09:02:31.407Z,1.67
2023-12-22T09:04:58.189Z,1.05
2023-12-22T09:07:25.892Z,0.60
2023-12-22T09:09:52.793Z,0.55
2023-12-22T09:12:19.730Z,0.50
2023-12-22T09:14:46.645Z,0.52
2023-12-22T09:17:13.321Z,0.70
2023-12-22T09:19:40.544Z,0.43
2023-12-22T09:22:07.170Z,0.50
2023-12-22T09:24:33.772Z,0.60
2023-12-22T09:27:03.907Z,0.40
2023-12-22T09:29:32.775Z,0.65
2023-12-22T09:31:59.865Z,0.45
2023-12-22T09:34:29.648Z,1.98
2023-12-22T09:36:57.169Z,1.70
2023-12-22T09:39:23.863Z,1.80
2023-12-22T09:41:51.307Z,2.95
2023-12-22T09:44:21.942Z,2.63
2023-12-22T09:46:53.423Z,2.30
2023-12-22T09:49:21.483Z,1.55
2023-12-22T09:51:50.416Z,1.38
2023-12-22T09:54:18.290Z,1.15
2023-12-22T09:56:46.033Z,2.22
2023-12-22T09:59:15.994Z,1.20
2023-12-22T10:01:47.502Z,1.50
2023-12-22T10:04:15.233Z,1.30
2023-12-22T10:06:48.108Z,1.60
2023-12-22T10:09:17.324Z,1.70
2023-12-22T10:11:45.250Z,7.60
2023-12-22T10:14:13.244Z,8.63
2023-12-22T10:16:40.690Z,6.18
2023-12-22T10:19:08.022Z,4.28
2023-12-22T10:21:35.949Z,5.05
2023-12-22T10:24:03.009Z,5.60
2023-12-22T10:26:29.680Z,7.68
2023-12-22T10:28:56.487Z,1.40
2023-12-22T10:31:23.708Z,1.10
2023-12-22T10:33:50.376Z,0.80
2023-12-22T10:36:18.116Z,0.60
2023-12-22T10:38:45.985Z,0.55
2023-12-22T10:41:12.730Z,0.60
2023-12-22T10:43:40.589Z,0.60
2023-12-22T10:46:12.588Z,0.75
2023-12-22T10:48:41.268Z,1.50
2023-12-22T10:51:12.222Z,1.30
2023-12-22T10:53:42.578Z,1.17
2023-12-22T10:56:09.355Z,3.20
2023-12-22T10:58:36.911Z,3.67
2023-12-22T11:01:04.613Z,4.40
2023-12-22T11:03:35.101Z,1.20
2023-12-22T11:06:07.781Z,0.63
2023-12-22T11:08:37.332Z,0.70
2023-12-22T11:11:15.145Z,0.80
2023-12-22T11:13:44.295Z,0.70
2023-12-22T11:16:11.135Z,1.10
2023-12-22T11:18:38.259Z,1.33
2023-12-22T11:21:08.031Z,1.90
2023-12-22T11:23:36.603Z,1.63
2023-12-22T11:26:05.704Z,2.53
2023-12-22T11:28:34.712Z,2.72
2023-12-22T11:31:02.596Z,3.28
2023-12-22T11:33:30.664Z,3.50
2023-12-22T11:35:59.027Z,2.55
2023-12-22T11:38:25.766Z,1.60
2023-12-22T11:40:54.345Z,1.77
2023-12-22T11:43:22.236Z,1.27
2023-12-22T11:45:52.066Z,1.40
2023-12-22T11:48:19.094Z,1.17
2023-12-22T11:50:45.942Z,1.45
2023-12-22T11:53:24.216Z,1.55
2023-12-22T11:55:59.792Z,1.40
2023-12-22T11:58:36.967Z,2.10
2023-12-22T12:01:06.386Z,1.00
2023-12-22T12:03:33.280Z,1.23
2023-12-22T12:06:16.894Z,1.33
2023-12-22T12:08:44.515Z,0.80
2023-12-22T12:11:11.473Z,1.15
2023-12-22T12:13:43.969Z,1.40
2023-12-22T12:16:15.126Z,0.80
2023-12-22T12:18:42.514Z,1.00
2023-12-22T12:21:11.055Z,1.20
2023-12-22T12:23:38.355Z,0.75
2023-12-22T12:26:07.681Z,1.00
2023-12-22T12:28:36.970Z,1.05
2023-12-22T12:31:06.321Z,1.10
2023-12-22T12:33:33.892Z,0.95
2023-12-22T12:36:02.489Z,1.13
2023-12-22T12:38:49.567Z,1.00
2023-12-22T12:41:16.922Z,1.13
2023-12-22T12:43:44.644Z,1.23
2023-12-22T12:46:12.239Z,1.63
2023-12-22T12:48:39.219Z,1.10
2023-12-22T12:51:07.442Z,0.85
2023-12-22T12:53:34.905Z,1.30
2023-12-22T12:56:02.117Z,1.13
2023-12-22T12:58:33.495Z,1.00
2023-12-22T13:01:20.556Z,2.15
2023-12-22T13:03:56.042Z,1.85
2023-12-22T13:06:23.556Z,2.13
2023-12-22T13:08:53.952Z,2.83
2023-12-22T13:11:26.464Z,3.17
2023-12-22T13:13:53.685Z,3.97
2023-12-22T13:16:30.367Z,6.22
2023-12-22T13:19:01.609Z,5.97
2023-12-22T13:21:33.812Z,7.40
2023-12-22T13:24:14.243Z,7.20
2023-12-22T13:26:41.836Z,8.15
2023-12-22T13:29:09.824Z,7.63
2023-12-22T13:31:41.770Z,6.55
2023-12-22T13:34:12.260Z,8.30
2023-12-22T13:36:39.555Z,7.63
2023-12-22T13:39:07.671Z,5.90
2023-12-22T13:41:38.210Z,5.13
2023-12-22T13:44:06.719Z,6.28
2023-12-22T13:46:36.229Z,5.68
2023-12-22T13:49:03.821Z,12.68
2023-12-22T13:51:48.864Z,11.93
2023-12-22T13:54:15.695Z,6.60
2023-12-22T13:56:43.142Z,6.55
2023-12-22T13:59:10.019Z,6.80
2023-12-22T14:01:37.111Z,7.78
2023-12-22T14:04:04.016Z,7.93
2023-12-22T14:06:31.134Z,8.30
2023-12-22T14:08:58.195Z,6.55
2023-12-22T14:11:24.811Z,6.13
2023-12-22T14:13:51.440Z,5.93
2023-12-22T14:16:18.330Z,4.53
2023-12-22T14:18:46.365Z,4.72
2023-12-22T14:21:13.050Z,4.15
2023-12-22T14:23:39.741Z,7.22
2023-12-22T14:26:07.032Z,8.00
2023-12-22T14:28:33.964Z,9.55
2023-12-22T14:31:00.880Z,8.77
2023-12-22T14:33:27.703Z,7.35
2023-12-22T14:35:54.945Z,6.95
2023-12-22T14:38:21.701Z,9.20
2023-12-22T14:40:48.451Z,10.75
2023-12-22T14:43:15.192Z,11.32
2023-12-22T14:45:42.008Z,9.10
2023-12-22T14:48:08.771Z,8.93
2023-12-22T14:50:35.488Z,12.05
2023-12-22T14:53:02.117Z,11.15
2023-12-22T14:55:29.948Z,11.70
2023-12-22T14:57:56.549Z,9.05
2023-12-22T15:00:23.204Z,5.15
2023-12-22T15:02:50.146Z,6.60
2023-12-22T15:05:17.112Z,5.30
2023-12-22T15:07:43.986Z,6.70
2023-12-22T15:10:11.595Z,7.90
2023-12-22T15:12:39.227Z,6.35
2023-12-22T15:15:06.656Z,5.03
2023-12-22T15:17:35.567Z,4.85
2023-12-22T15:20:05.949Z,4.35
2023-12-22T15:22:33.677Z,3.28
2023-12-22T15:25:00.405Z,2.78
2023-12-22T15:27:28.124Z,4.90
2023-12-22T15:29:54.836Z,5.57
2023-12-22T15:32:21.747Z,6.20
2023-12-22T15:34:48.495Z,7.45
2023-12-22T15:37:15.214Z,7.18
2023-12-22T15:39:41.862Z,8.18
2023-12-22T15:42:08.638Z,6.60
2023-12-22T15:44:40.224Z,6.88
2023-12-22T15:47:07.260Z,5.30
2023-12-22T15:49:35.989Z,5.03
2023-12-22T15:52:02.861Z,4.32
2023-12-22T15:54:29.559Z,4.25
2023-12-22T15:56:57.260Z,4.40
2023-12-22T15:59:27.046Z,5.65
2023-12-22T16:01:53.819Z,5.07
2023-12-22T16:04:20.520Z,5.95
2023-12-22T16:06:47.184Z,6.25
2023-12-22T16:09:14.779Z,7.53
2023-12-22T16:11:41.613Z,6.47
2023-12-22T16:14:08.476Z,5.40
2023-12-22T16:16:35.309Z,5.28
2023-12-22T16:19:02.235Z,4.10
2023-12-22T16:21:29.009Z,5.32
2023-12-22T16:23:55.712Z,5.30
2023-12-22T16:26:22.703Z,5.82
2023-12-22T16:28:49.795Z,5.90
2023-12-22T16:31:16.501Z,7.68
2023-12-22T16:33:43.892Z,7.45
2023-12-22T16:36:11.790Z,11.43
2023-12-22T16:38:39.122Z,37.25
2023-12-22T16:41:07.405Z,39.08
2023-12-22T16:43:35.726Z,9.98
2023-12-22T16:46:02.700Z,6.57
2023-12-22T16:48:29.531Z,7.55
2023-12-22T16:51:01.381Z,7.20
2023-12-22T16:53:29.261Z,8.38
2023-12-22T16:55:55.945Z,7.53
2023-12-22T16:58:22.732Z,7.03
2023-12-22T17:01:08.329Z,6.97
2023-12-22T17:03:38.027Z,10.25
2023-12-22T17:06:05.751Z,9.10
2023-12-22T17:08:34.601Z,8.18
2023-12-22T17:11:01.932Z,8.05
2023-12-22T17:13:28.721Z,12.35
2023-12-22T17:15:55.684Z,16.48
2023-12-22T17:18:22.620Z,16.70
2023-12-22T17:20:58.972Z,15.02
2023-12-22T17:23:29.097Z,14.30
2023-12-22T17:25:57.166Z,14.48
2023-12-22T17:28:24.380Z,16.50
2023-12-22T17:30:51.969Z,16.13
2023-12-22T17:33:19.052Z,16.77
2023-12-22T17:35:45.975Z,16.83
2023-12-22T17:38:12.797Z,14.93
2023-12-22T17:40:39.588Z,16.70
2023-12-22T17:43:07.517Z,16.05
2023-12-22T17:45:34.173Z,19.73
2023-12-22T17:48:00.869Z,15.88
2023-12-22T17:50:27.540Z,15.93
2023-12-22T17:52:54.205Z,14.48
2023-12-22T17:55:20.860Z,14.50
2023-12-22T17:57:47.687Z,14.73
2023-12-22T18:00:15.370Z,25.58
2023-12-22T18:02:41.995Z,19.38
2023-12-22T18:05:08.846Z,13.73
2023-12-22T18:07:35.554Z,14.10
2023-12-22T18:10:02.207Z,14.80
2023-12-22T18:12:28.830Z,15.38
2023-12-22T18:14:55.538Z,16.90
2023-12-22T18:17:22.189Z,14.27
2023-12-22T18:19:48.826Z,8.18
2023-12-22T18:22:15.443Z,4.65
2023-12-22T18:24:42.048Z,5.20
2023-12-22T18:27:09.542Z,10.88
2023-12-22T18:29:37.657Z,10.75
2023-12-22T18:32:05.781Z,9.93
2023-12-22T18:34:32.634Z,8.40
2023-12-22T18:36:59.555Z,9.52
2023-12-22T18:39:26.194Z,9.07
2023-12-22T18:41:52.813Z,8.60
2023-12-22T18:44:19.472Z,6.95
2023-12-22T18:46:46.181Z,4.15
2023-12-22T18:49:14.868Z,7.00
2023-12-22T18:51:41.839Z,7.45
2023-12-22T18:54:10.104Z,8.10
2023-12-22T18:56:37.066Z,6.68
2023-12-22T18:59:04.065Z,6.38
2023-12-22T19:01:40.378Z,7.55
2023-12-22T19:04:15.231Z,5.72
2023-12-22T19:06:42.101Z,7.55
2023-12-22T19:09:10.716Z,13.27
2023-12-22T19:11:37.482Z,13.57
2023-12-22T19:14:04.303Z,13.15
2023-12-22T19:16:31.337Z,13.85
2023-12-22T19:18:58.054Z,13.93
2023-12-22T19:21:24.728Z,15.20
2023-12-22T19:23:51.341Z,15.05
2023-12-22T19:26:18.640Z,14.02
2023-12-22T19:28:45.395Z,13.50
2023-12-22T19:31:12.110Z,12.57
2023-12-22T19:33:41.154Z,12.48
2023-12-22T19:36:08.460Z,20.20
2023-12-22T19:38:35.316Z,12.93
2023-12-22T19:41:02.200Z,10.82
2023-12-22T19:43:29.164Z,10.93
2023-12-22T19:45:55.932Z,10.48
2023-12-22T19:48:22.718Z,10.82
2023-12-22T19:50:50.126Z,11.05
2023-12-22T19:53:17.511Z,11.63
2023-12-22T19:55:44.436Z,12.32
2023-12-22T19:58:11.047Z,11.38
2023-12-22T20:00:37.695Z,11.02
2023-12-22T20:03:04.507Z,11.18
2023-12-22T20:05:31.398Z,10.82
2023-12-22T20:07:58.205Z,11.63
2023-12-22T20:10:24.884Z,10.32
2023-12-22T20:12:51.638Z,11.90
2023-12-22T20:15:19.846Z,10.13
2023-12-22T20:17:47.205Z,11.63
2023-12-22T20:20:14.879Z,10.15
2023-12-22T20:22:41.863Z,10.48
2023-12-22T20:25:11.585Z,9.98
2023-12-22T20:27:38.617Z,10.45
2023-12-22T20:30:06.498Z,11.05
2023-12-22T20:32:33.232Z,10.95
2023-12-22T20:35:02.565Z,11.25
2023-12-22T20:37:29.304Z,12.85
2023-12-22T20:39:55.983Z,10.68
2023-12-22T20:42:22.720Z,11.88
2023-12-22T20:44:50.029Z,11.27
2023-12-22T20:47:16.719Z,11.32
2023-12-22T20:49:43.809Z,11.48
2023-12-22T20:52:10.439Z,10.65
2023-12-22T20:54:37.249Z,11.18
2023-12-22T20:57:08.253Z,9.45
2023-12-22T20:59:36.446Z,13.52
2023-12-22T21:02:03.212Z,11.40
2023-12-22T21:04:30.534Z,11.52
2023-12-22T21:06:57.699Z,12.65
2023-12-22T21:09:24.676Z,12.13
2023-12-22T21:11:51.335Z,12.00
2023-12-22T21:14:18.367Z,11.43
2023-12-22T21:16:46.038Z,11.07
2023-12-22T21:19:13.605Z,10.23
2023-12-22T21:21:44.548Z,10.15
2023-12-22T21:24:11.732Z,10.10
2023-12-22T21:26:38.439Z,9.77
2023-12-22T21:29:05.430Z,9.75
2023-12-22T21:31:32.651Z,9.93
2023-12-22T21:33:59.719Z,10.25
2023-12-22T21:36:26.681Z,11.23
2023-12-22T21:38:54.185Z,12.32
2023-12-22T21:41:22.736Z,11.63
2023-12-22T21:43:49.643Z,11.18
2023-12-22T21:46:16.378Z,11.00
2023-12-22T21:48:43.148Z,10.35
2023-12-22T21:51:10.230Z,10.05
2023-12-22T21:53:37.132Z,10.95
2023-12-22T21:56:04.395Z,11.98
2023-12-22T21:58:31.409Z,13.27
2023-12-22T22:00:58.281Z,11.90
2023-12-22T22:03:26.313Z,13.80
2023-12-22T22:05:53.233Z,11.10
2023-12-22T22:08:19.956Z,11.20
2023-12-22T22:10:46.815Z,13.15
2023-12-22T22:13:13.473Z,15.05
2023-12-22T22:15:40.094Z,13.15
2023-12-22T22:18:09.368Z,12.25
2023-12-22T22:20:37.079Z,10.05
2023-12-22T22:23:04.041Z,10.30
2023-12-22T22:25:31.025Z,10.50
2023-12-22T22:27:57.615Z,8.23
2023-12-22T22:30:24.535Z,6.70
2023-12-22T22:32:51.364Z,6.03
2023-12-22T22:35:18.023Z,6.75
2023-12-22T22:37:44.681Z,7.03
2023-12-22T22:40:11.728Z,6.43
2023-12-22T22:42:38.412Z,6.15
2023-12-22T22:45:05.443Z,6.20
2023-12-22T22:47:33.969Z,5.65
2023-12-22T22:50:00.889Z,6.93
2023-12-22T22:52:27.646Z,6.38
2023-12-22T22:54:55.164Z,6.20
2023-12-22T22:57:23.175Z,6.22
2023-12-22T22:59:50.248Z,6.00
2023-12-22T23:02:17.392Z,7.22
2023-12-22T23:04:44.046Z,9.32
2023-12-22T23:07:12.788Z,10.45
2023-12-22T23:09:39.479Z,12.85
2023-12-22T23:12:06.590Z,10.57
2023-12-22T23:14:33.217Z,12.50
2023-12-22T23:16:59.871Z,12.68
2023-12-22T23:19:26.544Z,13.23
2023-12-22T23:21:53.170Z,13.82
2023-12-22T23:24:19.827Z,12.15
2023-12-22T23:26:46.509Z,10.43
2023-12-22T23:29:13.197Z,10.50
2023-12-22T23:31:39.879Z,10.15
2023-12-22T23:34:06.541Z,9.13
2023-12-22T23:36:33.199Z,9.45
2023-12-22T23:38:59.857Z,5.38
2023-12-22T23:41:26.441Z,3.13
2023-12-22T23:43:53.147Z,2.33
2023-12-22T23:46:19.769Z,1.40
2023-12-22T23:48:46.529Z,1.70
2023-12-22T23:51:15.633Z,1.05
2023-12-22T23:53:42.377Z,0.65
2023-12-22T23:56:09.069Z,0.65
2023-12-22T23:58:35.951Z,0.55
